Time;durP1;ratioP1;P1;durP2;ratioP2;P2;SDS_P1;SDS_P2;PMS_P1;PMS_P2;Temp;Humidity;BMP_temperature;BMP_pressure;BME280_temperature;BME280_humidity;BME280_pressure;Samples;Min_cycle;Max_cycle;Signal;HPM_P1;HPM_P2
2023/09/30 00:02:26;;;;;;;22.70;7.10;;;;;;;;;;10435489;28;20017;-72
2023/09/30 00:07:26;;;;;;;19.30;7.07;;;;;;;;;;10443956;28;20017;-72
2023/09/30 00:12:26;;;;;;;12.87;7.30;;;;;;;;;;10455353;28;20303;-72
2023/09/30 00:17:27;;;;;;;12.30;6.23;;;;;;;;;;10457424;28;20272;-72
2023/09/30 00:22:28;;;;;;;13.98;6.45;;;;;;;;;;10447896;28;20305;-71
2023/09/30 00:27:28;;;;;;;18.85;7.25;;;;;;;;;;10451163;28;20075;-72
2023/09/30 00:32:29;;;;;;;14.50;6.82;;;;;;;;;;10450822;28;20013;-72
2023/09/30 00:37:29;;;;;;;18.13;6.03;;;;;;;;;;10453457;28;20028;-72
2023/09/30 00:42:29;;;;;;;15.65;5.90;;;;;;;;;;10452722;28;20028;-72
2023/09/30 00:47:30;;;;;;;13.68;6.25;;;;;;;;;;10442061;28;20090;-72
2023/09/30 00:52:34;;;;;;;17.05;6.57;;;;;;;;;;10436122;28;20556;-71
2023/09/30 00:57:35;;;;;;;13.30;5.80;;;;;;;;;;10451203;28;20322;-71
2023/09/30 01:02:37;;;;;;;12.57;5.90;;;;;;;;;;10448434;28;20280;-71
2023/09/30 01:07:37;;;;;;;13.50;6.63;;;;;;;;;;10441837;28;20048;-71
2023/09/30 01:12:37;;;;;;;9.98;5.80;;;;;;;;;;10445983;28;20252;-71
2023/09/30 01:17:38;;;;;;;15.10;7.47;;;;;;;;;;10436359;28;20028;-71
2023/09/30 01:22:38;;;;;;;35.20;7.00;;;;;;;;;;10443846;28;20243;-72
2023/09/30 01:27:38;;;;;;;12.65;6.28;;;;;;;;;;10427973;28;20044;-71
2023/09/30 01:32:39;;;;;;;17.60;6.57;;;;;;;;;;10426908;28;20334;-72
2023/09/30 01:37:39;;;;;;;18.75;7.20;;;;;;;;;;10429996;28;20025;-71
2023/09/30 01:42:39;;;;;;;14.88;5.93;;;;;;;;;;10431668;28;20040;-71
2023/09/30 01:47:39;;;;;;;19.50;6.27;;;;;;;;;;10451134;28;20045;-71
2023/09/30 01:52:40;;;;;;;10.77;5.57;;;;;;;;;;10446092;28;20282;-72
2023/09/30 01:57:40;;;;;;;9.50;5.15;;;;;;;;;;10435627;28;20033;-71
2023/09/30 02:02:41;;;;;;;10.40;5.20;;;;;;;;;;10440640;28;20354;-71
2023/09/30 02:07:42;;;;;;;11.38;5.13;;;;;;;;;;10448927;28;20043;-71
2023/09/30 02:12:42;;;;;;;15.13;5.27;;;;;;;;;;10450303;28;20023;-71
2023/09/30 02:17:45;;;;;;;13.87;5.73;;;;;;;;;;10445857;28;20632;-71
2023/09/30 02:22:45;;;;;;;20.83;6.78;;;;;;;;;;10432225;28;20283;-71
2023/09/30 02:27:46;;;;;;;19.17;5.60;;;;;;;;;;10446728;28;20206;-71
2023/09/30 02:32:46;;;;;;;18.97;5.87;;;;;;;;;;10440005;28;20075;-70
2023/09/30 02:37:46;;;;;;;9.50;5.18;;;;;;;;;;10427839;28;20237;-71
2023/09/30 02:42:48;;;;;;;17.00;6.97;;;;;;;;;;10420766;28;20031;-71
2023/09/30 02:47:48;;;;;;;10.82;5.57;;;;;;;;;;10450618;28;20108;-71
2023/09/30 02:52:49;;;;;;;23.42;6.30;;;;;;;;;;10441178;28;20021;-71
2023/09/30 02:57:50;;;;;;;14.95;6.18;;;;;;;;;;10437386;28;20013;-71
2023/09/30 03:02:50;;;;;;;11.52;5.95;;;;;;;;;;10434611;28;20021;-72
2023/09/30 03:07:51;;;;;;;16.92;7.05;;;;;;;;;;10422674;28;20287;-72
2023/09/30 03:12:51;;;;;;;22.90;6.70;;;;;;;;;;10448712;28;20021;-71
2023/09/30 03:17:53;;;;;;;14.43;7.22;;;;;;;;;;10439513;28;20032;-71
2023/09/30 03:22:53;;;;;;;13.93;6.70;;;;;;;;;;10457297;28;20017;-71
2023/09/30 03:27:53;;;;;;;11.98;7.25;;;;;;;;;;10447589;28;20240;-71
2023/09/30 03:32:53;;;;;;;26.50;8.77;;;;;;;;;;10437419;28;20220;-71
2023/09/30 03:37:54;;;;;;;18.95;7.70;;;;;;;;;;10454835;28;20208;-71
2023/09/30 03:42:54;;;;;;;11.82;6.43;;;;;;;;;;10448258;28;20025;-71
2023/09/30 03:47:55;;;;;;;15.90;6.90;;;;;;;;;;10441058;28;20368;-71
2023/09/30 03:53:02;;;;;;;17.57;7.57;;;;;;;;;;10426367;28;20028;-69
2023/09/30 03:58:03;;;;;;;18.70;8.65;;;;;;;;;;10430800;28;20047;-71
2023/09/30 04:03:03;;;;;;;16.40;7.25;;;;;;;;;;10462027;28;20032;-71
2023/09/30 04:08:05;;;;;;;15.50;7.43;;;;;;;;;;10458791;28;20188;-71
2023/09/30 04:13:05;;;;;;;14.02;6.80;;;;;;;;;;10455756;28;20028;-70
2023/09/30 04:18:05;;;;;;;16.87;6.30;;;;;;;;;;10454582;28;20415;-71
2023/09/30 04:23:06;;;;;;;17.98;8.98;;;;;;;;;;10455234;28;20036;-70
2023/09/30 04:28:09;;;;;;;15.60;7.50;;;;;;;;;;10452321;28;20029;-69
2023/09/30 04:33:11;;;;;;;14.75;8.13;;;;;;;;;;10455309;28;20142;-71
2023/09/30 04:38:13;;;;;;;16.77;6.85;;;;;;;;;;10440874;28;20029;-71
2023/09/30 04:43:14;;;;;;;13.35;6.93;;;;;;;;;;10461448;28;20044;-70
2023/09/30 04:48:14;;;;;;;18.75;7.28;;;;;;;;;;10457473;28;20041;-71
2023/09/30 04:53:17;;;;;;;15.40;7.50;;;;;;;;;;10457513;28;20025;-70
2023/09/30 04:58:18;;;;;;;18.10;8.02;;;;;;;;;;10457079;28;20060;-70
2023/09/30 05:03:19;;;;;;;16.50;7.63;;;;;;;;;;10457518;28;20309;-71
2023/09/30 05:08:19;;;;;;;19.73;8.30;;;;;;;;;;10441821;28;20253;-70
2023/09/30 05:13:19;;;;;;;10.10;5.85;;;;;;;;;;10456623;28;20032;-71
2023/09/30 05:18:19;;;;;;;15.18;7.13;;;;;;;;;;10456932;28;20040;-70
2023/09/30 05:23:20;;;;;;;13.20;7.18;;;;;;;;;;10456088;28;20016;-70
2023/09/30 05:28:20;;;;;;;13.40;7.40;;;;;;;;;;10450088;28;20020;-70
2023/09/30 05:33:22;;;;;;;19.33;9.43;;;;;;;;;;10443655;28;20013;-71
2023/09/30 05:38:23;;;;;;;15.48;8.25;;;;;;;;;;10455967;28;20028;-70
2023/09/30 05:43:23;;;;;;;13.90;8.27;;;;;;;;;;10454418;28;20021;-71
2023/09/30 05:48:23;;;;;;;16.55;7.72;;;;;;;;;;10451519;28;20067;-71
2023/09/30 05:53:24;;;;;;;21.43;8.57;;;;;;;;;;10454322;28;20100;-70
2023/09/30 05:58:26;;;;;;;21.05;10.63;;;;;;;;;;10456751;28;20275;-72
2023/09/30 06:03:29;;;;;;;28.08;12.23;;;;;;;;;;10453008;28;20403;-72
2023/09/30 06:08:29;;;;;;;21.67;9.55;;;;;;;;;;10447086;28;20364;-73
2023/09/30 06:13:31;;;;;;;32.72;10.02;;;;;;;;;;10452934;28;20025;-74
2023/09/30 06:18:31;;;;;;;21.38;10.85;;;;;;;;;;10452835;28;20067;-74
2023/09/30 06:23:32;;;;;;;17.85;9.95;;;;;;;;;;10452817;28;20307;-72
2023/09/30 06:28:33;;;;;;;23.48;8.85;;;;;;;;;;10452134;28;20199;-71
2023/09/30 06:33:38;;;;;;;17.45;9.07;;;;;;;;;;10452462;28;20025;-73
2023/09/30 06:38:38;;;;;;;29.00;10.38;;;;;;;;;;10452087;28;20033;-72
2023/09/30 06:43:39;;;;;;;22.95;8.45;;;;;;;;;;10424827;28;20104;-71
2023/09/30 06:48:42;;;;;;;22.67;10.93;;;;;;;;;;10451858;28;20219;-71
2023/09/30 06:53:42;;;;;;;14.18;7.63;;;;;;;;;;10456872;28;20032;-71
2023/09/30 06:58:42;;;;;;;21.33;7.15;;;;;;;;;;10460607;28;20364;-71
2023/09/30 07:03:42;;;;;;;19.00;8.23;;;;;;;;;;10459948;28;20028;-75
2023/09/30 07:08:43;;;;;;;18.23;6.30;;;;;;;;;;10458997;28;20223;-72
2023/09/30 07:13:43;;;;;;;14.20;6.50;;;;;;;;;;10460226;28;20222;-74
2023/09/30 07:18:43;;;;;;;11.13;6.43;;;;;;;;;;10460855;28;20021;-74
2023/09/30 07:23:44;;;;;;;14.70;6.30;;;;;;;;;;10441854;28;20298;-74
2023/09/30 07:28:44;;;;;;;21.10;7.50;;;;;;;;;;10459507;28;20094;-74
2023/09/30 07:33:44;;;;;;;23.92;6.32;;;;;;;;;;10459434;28;20021;-74
2023/09/30 07:38:44;;;;;;;14.02;6.35;;;;;;;;;;10459265;28;20025;-73
2023/09/30 07:43:45;;;;;;;10.73;5.10;;;;;;;;;;10458654;28;20052;-73
2023/09/30 07:48:45;;;;;;;19.10;4.82;;;;;;;;;;10458406;28;20277;-73
2023/09/30 07:53:45;;;;;;;12.45;5.22;;;;;;;;;;10450356;28;20029;-74
2023/09/30 07:58:45;;;;;;;12.23;5.78;;;;;;;;;;10458066;28;20074;-74
2023/09/30 08:03:46;;;;;;;12.23;4.35;;;;;;;;;;10454600;28;20329;-75
2023/09/30 08:08:47;;;;;;;12.32;4.03;;;;;;;;;;10452222;28;20028;-74
2023/09/30 08:13:47;;;;;;;11.98;4.40;;;;;;;;;;10455773;28;20403;-74
2023/09/30 08:18:48;;;;;;;16.63;3.63;;;;;;;;;;10455426;28;20021;-75
2023/09/30 08:23:49;;;;;;;15.23;4.85;;;;;;;;;;10456135;28;20371;-75
2023/09/30 08:28:49;;;;;;;24.23;5.25;;;;;;;;;;10456550;28;20028;-74
2023/09/30 08:33:49;;;;;;;11.20;4.00;;;;;;;;;;10456413;28;20027;-74
2023/09/30 08:38:49;;;;;;;10.13;4.22;;;;;;;;;;10455238;28;20013;-74
2023/09/30 08:43:50;;;;;;;16.95;4.93;;;;;;;;;;10453522;28;20036;-76
2023/09/30 08:48:51;;;;;;;14.18;4.88;;;;;;;;;;10440263;28;20044;-76
2023/09/30 08:53:52;;;;;;;12.88;6.47;;;;;;;;;;10457695;28;20013;-74
2023/09/30 08:58:55;;;;;;;12.60;5.13;;;;;;;;;;10457456;28;20325;-74
2023/09/30 09:03:56;;;;;;;19.05;6.25;;;;;;;;;;10456051;28;20212;-74
2023/09/30 09:09:12;;;;;;;13.65;5.53;;;;;;;;;;10452339;28;20024;-74
2023/09/30 09:14:12;;;;;;;16.83;6.03;;;;;;;;;;10456184;28;20353;-74
2023/09/30 09:19:14;;;;;;;14.07;5.57;;;;;;;;;;10456403;28;20055;-73
2023/09/30 09:24:26;;;;;;;10.48;6.05;;;;;;;;;;10455572;28;20016;-74
2023/09/30 09:29:27;;;;;;;15.35;5.70;;;;;;;;;;10455349;28;20569;-73
2023/09/30 09:34:27;;;;;;;9.73;4.93;;;;;;;;;;10455353;28;20039;-74
2023/09/30 09:39:34;;;;;;;9.27;5.07;;;;;;;;;;10455552;28;20033;-73
2023/09/30 09:44:36;;;;;;;11.52;5.10;;;;;;;;;;10455167;28;20340;-75
2023/09/30 09:49:36;;;;;;;13.40;5.30;;;;;;;;;;10455739;28;20021;-74
2023/09/30 09:54:38;;;;;;;12.43;4.90;;;;;;;;;;10454924;28;20235;-74
2023/09/30 09:59:42;;;;;;;8.40;4.53;;;;;;;;;;10454404;28;20131;-74
2023/09/30 10:04:44;;;;;;;10.18;4.18;;;;;;;;;;10454452;28;20037;-74
2023/09/30 10:09:46;;;;;;;11.85;4.40;;;;;;;;;;10441750;28;20086;-73
2023/09/30 10:14:46;;;;;;;10.48;3.63;;;;;;;;;;10454761;28;20033;-74
2023/09/30 10:20:09;;;;;;;10.77;4.07;;;;;;;;;;10453524;28;20332;-74
2023/09/30 10:25:33;;;;;;;9.13;2.97;;;;;;;;;;10452672;28;20596;-74
2023/09/30 10:30:35;;;;;;;14.10;3.25;;;;;;;;;;10453945;28;20039;-74
2023/09/30 10:35:35;;;;;;;14.02;2.42;;;;;;;;;;10452851;28;20009;-74
2023/09/30 10:40:35;;;;;;;8.63;2.92;;;;;;;;;;10452276;28;20321;-74
2023/09/30 10:45:38;;;;;;;9.18;2.35;;;;;;;;;;10452280;28;20050;-74
2023/09/30 10:51:01;;;;;;;8.75;2.25;;;;;;;;;;10452020;28;20207;-74
2023/09/30 10:56:01;;;;;;;168.30;146.43;;;;;;;;;;10453004;28;20247;-75
2023/09/30 11:01:02;;;;;;;16.73;2.67;;;;;;;;;;10453202;28;20017;-73
2023/09/30 11:06:03;;;;;;;8.32;2.67;;;;;;;;;;10452219;28;20059;-74
2023/09/30 11:11:04;;;;;;;3.95;2.10;;;;;;;;;;10442796;28;20055;-73
2023/09/30 11:16:05;;;;;;;15.98;2.95;;;;;;;;;;10435222;28;20043;-73
2023/09/30 11:21:05;;;;;;;4.10;2.00;;;;;;;;;;10452104;28;20061;-73
2023/09/30 11:26:05;;;;;;;11.18;2.88;;;;;;;;;;10452652;28;20024;-75
2023/09/30 11:31:07;;;;;;;7.30;2.80;;;;;;;;;;10452492;28;20087;-74
2023/09/30 11:36:08;;;;;;;17.83;3.67;;;;;;;;;;10450931;28;20039;-74
2023/09/30 11:41:08;;;;;;;10.25;3.70;;;;;;;;;;10458818;28;20015;-74
2023/09/30 11:46:10;;;;;;;10.30;3.90;;;;;;;;;;10459944;28;20037;-73
2023/09/30 11:51:11;;;;;;;16.55;4.30;;;;;;;;;;10459578;28;20033;-74
2023/09/30 11:56:11;;;;;;;8.40;3.95;;;;;;;;;;10459230;28;20070;-73
2023/09/30 12:01:14;;;;;;;10.13;4.80;;;;;;;;;;10459144;28;20199;-73
2023/09/30 12:06:16;;;;;;;10.85;4.30;;;;;;;;;;10456399;28;20052;-74
2023/09/30 12:11:16;;;;;;;9.65;3.50;;;;;;;;;;10457760;28;20005;-74
2023/09/30 12:16:17;;;;;;;12.98;3.92;;;;;;;;;;10458765;28;20366;-74
2023/09/30 12:21:19;;;;;;;11.30;3.97;;;;;;;;;;10440860;28;20021;-75
2023/09/30 12:26:20;;;;;;;9.20;4.47;;;;;;;;;;10440449;28;20016;-74
2023/09/30 12:31:21;;;;;;;9.82;4.53;;;;;;;;;;10440136;28;20070;-74
2023/09/30 12:36:21;;;;;;;7.38;3.60;;;;;;;;;;10457710;28;20317;-73
2023/09/30 12:41:22;;;;;;;4.72;3.92;;;;;;;;;;10457730;28;20024;-74
2023/09/30 12:46:22;;;;;;;8.07;4.72;;;;;;;;;;10439582;28;20045;-74
2023/09/30 12:51:22;;;;;;;11.05;4.10;;;;;;;;;;10456143;28;20028;-74
2023/09/30 12:56:22;;;;;;;8.45;3.95;;;;;;;;;;10457553;28;20063;-75
2023/09/30 13:01:23;;;;;;;8.40;3.70;;;;;;;;;;10457463;28;20020;-74
2023/09/30 13:06:23;;;;;;;8.87;3.73;;;;;;;;;;10453277;28;20024;-75
2023/09/30 13:11:23;;;;;;;9.10;4.18;;;;;;;;;;10448980;28;20088;-74
2023/09/30 13:16:24;;;;;;;12.07;4.40;;;;;;;;;;10456565;28;20025;-73
2023/09/30 13:21:25;;;;;;;15.10;6.28;;;;;;;;;;10456108;28;20051;-73
2023/09/30 13:26:25;;;;;;;10.73;4.70;;;;;;;;;;10455777;28;20028;-73
2023/09/30 13:31:26;;;;;;;12.43;4.43;;;;;;;;;;10455785;28;20021;-74
2023/09/30 13:36:26;;;;;;;6.38;4.53;;;;;;;;;;10455701;28;20267;-73
2023/09/30 13:41:27;;;;;;;18.00;5.18;;;;;;;;;;10455001;28;20056;-73
2023/09/30 13:46:28;;;;;;;20.27;5.63;;;;;;;;;;10455701;28;20036;-73
2023/09/30 13:51:28;;;;;;;10.50;4.03;;;;;;;;;;10455581;28;20076;-74
2023/09/30 13:56:30;;;;;;;11.57;3.65;;;;;;;;;;10454747;28;20230;-73
2023/09/30 14:01:30;;;;;;;11.27;4.32;;;;;;;;;;10454533;28;20021;-75
2023/09/30 14:06:31;;;;;;;13.73;5.20;;;;;;;;;;10450201;28;20033;-73
2023/09/30 14:11:32;;;;;;;8.57;3.80;;;;;;;;;;10446520;28;20095;-74
2023/09/30 14:16:32;;;;;;;9.93;4.70;;;;;;;;;;10454365;28;20028;-73
2023/09/30 14:21:32;;;;;;;10.65;4.10;;;;;;;;;;10454595;28;20416;-73
2023/09/30 14:26:33;;;;;;;12.27;4.75;;;;;;;;;;10454999;28;20092;-75
2023/09/30 14:31:33;;;;;;;6.90;3.80;;;;;;;;;;10453198;28;20041;-74
2023/09/30 14:36:34;;;;;;;9.10;4.03;;;;;;;;;;10436706;28;20055;-74
2023/09/30 14:41:34;;;;;;;15.52;3.80;;;;;;;;;;10453799;28;20013;-74
2023/09/30 14:46:35;;;;;;;15.57;4.43;;;;;;;;;;10452757;28;20041;-74
2023/09/30 14:51:35;;;;;;;10.93;4.20;;;;;;;;;;10454098;28;20025;-74
2023/09/30 14:56:36;;;;;;;13.32;3.55;;;;;;;;;;10453180;28;20267;-74
2023/09/30 15:01:36;;;;;;;12.88;4.53;;;;;;;;;;10452842;28;20280;-74
2023/09/30 15:06:37;;;;;;;9.70;4.33;;;;;;;;;;10447776;28;20185;-74
2023/09/30 15:11:37;;;;;;;8.02;4.60;;;;;;;;;;10446634;28;20013;-74
2023/09/30 15:16:38;;;;;;;13.43;4.65;;;;;;;;;;10460737;28;20263;-74
2023/09/30 15:21:38;;;;;;;16.17;4.72;;;;;;;;;;10444198;28;20028;-75
2023/09/30 15:26:38;;;;;;;11.35;4.80;;;;;;;;;;10460349;28;20175;-73
2023/09/30 15:31:39;;;;;;;9.23;4.15;;;;;;;;;;10460474;28;20327;-73
2023/09/30 15:36:40;;;;;;;15.50;4.28;;;;;;;;;;10460759;28;20044;-74
2023/09/30 15:41:41;;;;;;;14.15;4.55;;;;;;;;;;10460379;28;20021;-75
2023/09/30 15:46:41;;;;;;;11.98;5.18;;;;;;;;;;10442154;28;20323;-74
2023/09/30 15:51:41;;;;;;;11.23;4.18;;;;;;;;;;10459351;28;20357;-75
2023/09/30 15:56:41;;;;;;;9.07;4.33;;;;;;;;;;10459676;28;20021;-73
2023/09/30 16:01:42;;;;;;;17.58;4.60;;;;;;;;;;10441683;28;20311;-73
2023/09/30 16:06:42;;;;;;;11.75;4.30;;;;;;;;;;10451819;28;20048;-73
2023/09/30 16:11:42;;;;;;;14.07;4.50;;;;;;;;;;10454639;28;20317;-73
2023/09/30 16:16:43;;;;;;;17.00;5.18;;;;;;;;;;10459769;28;20013;-73
2023/09/30 16:21:43;;;;;;;12.02;4.22;;;;;;;;;;10459461;28;20192;-75
2023/09/30 16:26:43;;;;;;;20.87;5.37;;;;;;;;;;10458255;28;20366;-73
2023/09/30 16:31:44;;;;;;;14.20;5.83;;;;;;;;;;10459797;28;20028;-74
2023/09/30 16:36:44;;;;;;;14.98;5.45;;;;;;;;;;10459446;28;20327;-73
2023/09/30 16:41:44;;;;;;;10.93;5.00;;;;;;;;;;10440579;28;20202;-74
2023/09/30 16:46:44;;;;;;;9.27;5.43;;;;;;;;;;10458519;28;20055;-74
2023/09/30 16:51:45;;;;;;;12.50;6.53;;;;;;;;;;10459215;28;20032;-74
2023/09/30 16:56:45;;;;;;;16.48;6.57;;;;;;;;;;10458269;28;20027;-74
2023/09/30 17:01:46;;;;;;;13.48;6.90;;;;;;;;;;10456581;28;20017;-74
2023/09/30 17:06:46;;;;;;;20.33;6.80;;;;;;;;;;10451655;28;20025;-73
2023/09/30 17:11:46;;;;;;;14.07;6.25;;;;;;;;;;10454253;28;20020;-73
2023/09/30 17:16:47;;;;;;;19.60;6.80;;;;;;;;;;10457949;28;20421;-73
2023/09/30 17:21:47;;;;;;;13.98;6.78;;;;;;;;;;10457489;28;20025;-75
2023/09/30 17:26:47;;;;;;;21.10;6.93;;;;;;;;;;10457316;28;20474;-74
2023/09/30 17:31:47;;;;;;;11.38;6.13;;;;;;;;;;10456613;28;20182;-74
2023/09/30 17:36:48;;;;;;;17.58;6.72;;;;;;;;;;10456386;28;20291;-73
2023/09/30 17:41:48;;;;;;;19.63;7.22;;;;;;;;;;10453528;28;20050;-73
2023/09/30 17:46:48;;;;;;;17.63;8.20;;;;;;;;;;10437926;28;20621;-73
2023/09/30 17:51:49;;;;;;;28.50;9.80;;;;;;;;;;10455779;28;20081;-72
2023/09/30 17:56:49;;;;;;;20.53;7.07;;;;;;;;;;10431521;28;20013;-73
2023/09/30 18:01:49;;;;;;;21.40;7.70;;;;;;;;;;10453077;28;20043;-73
2023/09/30 18:06:50;;;;;;;18.88;7.18;;;;;;;;;;10454745;28;20506;-74
2023/09/30 18:11:51;;;;;;;21.93;7.10;;;;;;;;;;10455146;28;20119;-73
2023/09/30 18:16:51;;;;;;;22.58;6.97;;;;;;;;;;10454881;28;20541;-74
2023/09/30 18:21:51;;;;;;;15.60;6.70;;;;;;;;;;10455337;28;20021;-74
2023/09/30 18:26:52;;;;;;;11.63;6.55;;;;;;;;;;10437075;28;20012;-73
2023/09/30 18:31:53;;;;;;;16.65;5.85;;;;;;;;;;10455831;28;20086;-74
2023/09/30 18:36:53;;;;;;;18.05;6.45;;;;;;;;;;10453915;28;20024;-73
2023/09/30 18:41:53;;;;;;;19.23;6.32;;;;;;;;;;10436867;28;20104;-74
2023/09/30 18:46:54;;;;;;;23.90;6.80;;;;;;;;;;10453531;28;20429;-74
2023/09/30 18:51:54;;;;;;;18.23;6.80;;;;;;;;;;10447046;28;20056;-75
2023/09/30 18:56:55;;;;;;;23.35;6.85;;;;;;;;;;10449814;28;20024;-77
2023/09/30 19:01:55;;;;;;;28.35;7.85;;;;;;;;;;10449820;28;20025;-74
2023/09/30 19:06:55;;;;;;;15.57;6.55;;;;;;;;;;10452789;28;20020;-74
2023/09/30 19:11:55;;;;;;;17.73;6.53;;;;;;;;;;10435318;28;20356;-74
2023/09/30 19:16:56;;;;;;;17.17;6.25;;;;;;;;;;10450298;28;20348;-74
2023/09/30 19:21:56;;;;;;;28.10;9.57;;;;;;;;;;10450324;28;20021;-74
2023/09/30 19:26:56;;;;;;;19.40;6.15;;;;;;;;;;10449014;28;20299;-74
2023/09/30 19:31:57;;;;;;;18.33;6.07;;;;;;;;;;10451185;28;20378;-75
2023/09/30 19:36:57;;;;;;;12.05;5.70;;;;;;;;;;10452902;28;20029;-75
2023/09/30 19:41:58;;;;;;;20.75;6.97;;;;;;;;;;10452213;28;20223;-75
2023/09/30 19:46:58;;;;;;;24.67;5.57;;;;;;;;;;10452129;28;20040;-73
2023/09/30 19:51:59;;;;;;;20.93;5.17;;;;;;;;;;10452944;28;20041;-75
2023/09/30 19:56:59;;;;;;;19.75;5.85;;;;;;;;;;10451993;28;20255;-74
2023/09/30 20:02:00;;;;;;;21.73;6.47;;;;;;;;;;10440971;28;20031;-74
2023/09/30 20:07:00;;;;;;;13.40;7.00;;;;;;;;;;10459608;28;20024;-75
2023/09/30 20:12:05;;;;;;;13.45;6.05;;;;;;;;;;10459379;28;20101;-75
2023/09/30 20:17:05;;;;;;;15.63;7.82;;;;;;;;;;10459137;28;20029;-74
2023/09/30 20:22:05;;;;;;;17.60;6.45;;;;;;;;;;10458878;28;20025;-74
2023/09/30 20:27:05;;;;;;;16.33;6.80;;;;;;;;;;10458542;28;20286;-73
2023/09/30 20:32:06;;;;;;;20.67;8.23;;;;;;;;;;10457185;28;20055;-75
2023/09/30 20:37:06;;;;;;;19.25;7.40;;;;;;;;;;10458329;28;20303;-73
2023/09/30 20:42:07;;;;;;;21.02;8.27;;;;;;;;;;10440681;28;20248;-72
2023/09/30 20:47:07;;;;;;;15.87;8.17;;;;;;;;;;10456678;28;20323;-72
2023/09/30 20:52:08;;;;;;;22.52;9.10;;;;;;;;;;10452640;28;20052;-72
2023/09/30 20:57:08;;;;;;;19.53;7.00;;;;;;;;;;10435236;28;20032;-72
2023/09/30 21:02:08;;;;;;;20.17;7.67;;;;;;;;;;10429690;28;20029;-72
2023/09/30 21:07:09;;;;;;;15.13;6.40;;;;;;;;;;10454543;28;20039;-72
2023/09/30 21:12:09;;;;;;;14.73;6.97;;;;;;;;;;10454993;28;20047;-73
2023/09/30 21:17:09;;;;;;;19.60;8.00;;;;;;;;;;10454112;28;20238;-73
2023/09/30 21:22:10;;;;;;;17.67;6.70;;;;;;;;;;10447892;28;20036;-71
2023/09/30 21:27:10;;;;;;;13.05;6.20;;;;;;;;;;10455226;28;20259;-74
2023/09/30 21:32:10;;;;;;;14.45;6.60;;;;;;;;;;10438629;28;20028;-72
2023/09/30 21:37:10;;;;;;;16.88;6.20;;;;;;;;;;10448449;28;20087;-72
2023/09/30 21:42:10;;;;;;;12.70;6.25;;;;;;;;;;10421657;28;20025;-73
2023/09/30 21:47:11;;;;;;;16.10;6.40;;;;;;;;;;10456000;28;20226;-73
2023/09/30 21:52:11;;;;;;;13.52;6.22;;;;;;;;;;10437708;28;20357;-74
2023/09/30 21:57:11;;;;;;;24.77;7.15;;;;;;;;;;10449231;28;20029;-72
2023/09/30 22:02:12;;;;;;;13.10;6.73;;;;;;;;;;10455439;28;20029;-73
2023/09/30 22:07:12;;;;;;;15.07;7.30;;;;;;;;;;10455489;28;20083;-73
2023/09/30 22:12:13;;;;;;;17.17;6.85;;;;;;;;;;10453959;28;20222;-72
2023/09/30 22:17:13;;;;;;;17.20;6.88;;;;;;;;;;10439570;28;20033;-73
2023/09/30 22:22:13;;;;;;;21.63;7.07;;;;;;;;;;10435403;28;20056;-72
2023/09/30 22:27:13;;;;;;;14.93;6.93;;;;;;;;;;10440823;28;20230;-74
2023/09/30 22:32:14;;;;;;;19.83;7.33;;;;;;;;;;10416417;28;20108;-74
2023/09/30 22:37:14;;;;;;;20.80;7.43;;;;;;;;;;10429734;28;20321;-74
2023/09/30 22:42:14;;;;;;;20.02;6.32;;;;;;;;;;10435703;28;20074;-73
2023/09/30 22:47:14;;;;;;;22.10;5.97;;;;;;;;;;10431810;28;20065;-73
2023/09/30 22:52:15;;;;;;;11.32;6.70;;;;;;;;;;10437471;28;20025;-73
2023/09/30 22:57:15;;;;;;;13.98;6.38;;;;;;;;;;10437372;28;20025;-73
2023/09/30 23:02:15;;;;;;;18.33;6.97;;;;;;;;;;10446081;28;20171;-73
2023/09/30 23:07:18;;;;;;;29.20;7.43;;;;;;;;;;10448324;28;20258;-73
2023/09/30 23:12:19;;;;;;;14.43;6.90;;;;;;;;;;10435722;28;20516;-73
2023/09/30 23:17:19;;;;;;;12.10;6.70;;;;;;;;;;10427400;28;20108;-73
2023/09/30 23:22:19;;;;;;;15.88;6.50;;;;;;;;;;10438762;28;20241;-73
2023/09/30 23:27:20;;;;;;;13.02;7.40;;;;;;;;;;10445402;28;20017;-73
2023/09/30 23:32:20;;;;;;;21.55;7.57;;;;;;;;;;10441903;28;20017;-74
2023/09/30 23:37:21;;;;;;;13.82;6.43;;;;;;;;;;10435370;28;20075;-72
2023/09/30 23:42:22;;;;;;;15.95;6.43;;;;;;;;;;10429661;28;20029;-72
2023/09/30 23:47:22;;;;;;;16.08;5.88;;;;;;;;;;10442109;28;20040;-74
2023/09/30 23:52:23;;;;;;;13.45;5.80;;;;;;;;;;10453447;28;20036;-73
2023/09/30 23:57:23;;;;;;;10.90;6.07;;;;;;;;;;10451165;28;20265;-74
